sensor_id;sensor_type;location;lat;lon;timestamp;pressure;altitude;pressure_sealevel;temperature;humidity
80186;BME280;69904;52.122;5.422;2024-01-07T00:00:24;101884.13;;;1.99;83.32
80186;BME280;69904;52.122;5.422;2024-01-07T00:02:50;101895.75;;;1.98;83.29
80186;BME280;69904;52.122;5.422;2024-01-07T00:05:17;101891.25;;;1.99;83.27
80186;BME280;69904;52.122;5.422;2024-01-07T00:07:43;101898.19;;;2.01;83.34
80186;BME280;69904;52.122;5.422;2024-01-07T00:10:10;101898.06;;;2.03;83.60
80186;BME280;69904;52.122;5.422;2024-01-07T00:12:36;101895.88;;;1.97;83.59
80186;BME280;69904;52.122;5.422;2024-01-07T00:15:03;101898.19;;;2.01;83.68
80186;BME280;69904;52.122;5.422;2024-01-07T00:17:29;101898.53;;;1.97;83.49
80186;BME280;69904;52.122;5.422;2024-01-07T00:19:56;101912.69;;;1.97;83.81
80186;BME280;69904;52.122;5.422;2024-01-07T00:22:23;101915.47;;;1.96;83.68
80186;BME280;69904;52.122;5.422;2024-01-07T00:24:49;101917.53;;;1.92;83.74
80186;BME280;69904;52.122;5.422;2024-01-07T00:27:16;101908.56;;;1.93;83.76
80186;BME280;69904;52.122;5.422;2024-01-07T00:29:42;101919.94;;;1.95;83.68
80186;BME280;69904;52.122;5.422;2024-01-07T00:32:09;101914.97;;;1.91;83.85
80186;BME280;69904;52.122;5.422;2024-01-07T00:34:35;101918.47;;;1.91;83.88
80186;BME280;69904;52.122;5.422;2024-01-07T00:37:02;101925.13;;;1.86;83.87
80186;BME280;69904;52.122;5.422;2024-01-07T00:39:29;101916.50;;;1.82;83.99
80186;BME280;69904;52.122;5.422;2024-01-07T00:41:55;101921.81;;;1.82;83.92
80186;BME280;69904;52.122;5.422;2024-01-07T00:44:22;101928.44;;;1.77;83.83
80186;BME280;69904;52.122;5.422;2024-01-07T00:46:48;101931.75;;;1.80;83.91
80186;BME280;69904;52.122;5.422;2024-01-07T00:49:15;101929.19;;;1.79;84.26
80186;BME280;69904;52.122;5.422;2024-01-07T00:51:42;101931.25;;;1.75;84.14
80186;BME280;69904;52.122;5.422;2024-01-07T00:54:08;101933.75;;;1.77;84.15
80186;BME280;69904;52.122;5.422;2024-01-07T00:56:35;101927.13;;;1.82;84.16
80186;BME280;69904;52.122;5.422;2024-01-07T00:59:01;101941.19;;;1.84;84.25
80186;BME280;69904;52.122;5.422;2024-01-07T01:01:28;101935.19;;;1.69;84.11
80186;BME280;69904;52.122;5.422;2024-01-07T01:03:55;101936.91;;;1.71;84.26
80186;BME280;69904;52.122;5.422;2024-01-07T01:06:21;101936.78;;;1.72;84.05
80186;BME280;69904;52.122;5.422;2024-01-07T01:08:48;101940.19;;;1.74;84.19
80186;BME280;69904;52.122;5.422;2024-01-07T01:11:14;101944.66;;;1.74;84.52
80186;BME280;69904;52.122;5.422;2024-01-07T01:13:40;101946.47;;;1.73;84.27
80186;BME280;69904;52.122;5.422;2024-01-07T01:16:07;101944.88;;;1.71;84.29
80186;BME280;69904;52.122;5.422;2024-01-07T01:18:33;101949.22;;;1.72;84.30
80186;BME280;69904;52.122;5.422;2024-01-07T01:21:00;101954.44;;;1.73;84.50
80186;BME280;69904;52.122;5.422;2024-01-07T01:23:26;101958.91;;;1.73;84.44
80186;BME280;69904;52.122;5.422;2024-01-07T01:25:53;101959.31;;;1.79;84.50
80186;BME280;69904;52.122;5.422;2024-01-07T01:28:19;101957.00;;;1.75;84.66
80186;BME280;69904;52.122;5.422;2024-01-07T01:30:46;101962.31;;;1.75;84.68
80186;BME280;69904;52.122;5.422;2024-01-07T01:33:12;101960.38;;;1.77;84.61
80186;BME280;69904;52.122;5.422;2024-01-07T01:35:39;101956.25;;;1.73;84.78
80186;BME280;69904;52.122;5.422;2024-01-07T01:38:06;101965.09;;;1.73;84.93
80186;BME280;69904;52.122;5.422;2024-01-07T01:40:32;101967.84;;;1.72;84.89
80186;BME280;69904;52.122;5.422;2024-01-07T01:42:58;101974.03;;;1.72;84.79
80186;BME280;69904;52.122;5.422;2024-01-07T01:45:25;101974.97;;;1.71;85.12
80186;BME280;69904;52.122;5.422;2024-01-07T01:47:51;101980.53;;;1.68;85.09
80186;BME280;69904;52.122;5.422;2024-01-07T01:50:18;101982.16;;;1.71;85.01
80186;BME280;69904;52.122;5.422;2024-01-07T01:52:45;101985.53;;;1.73;84.91
80186;BME280;69904;52.122;5.422;2024-01-07T01:55:13;101982.84;;;1.73;84.89
80186;BME280;69904;52.122;5.422;2024-01-07T01:57:40;101988.19;;;1.73;84.91
80186;BME280;69904;52.122;5.422;2024-01-07T02:00:07;101993.91;;;1.79;85.04
80186;BME280;69904;52.122;5.422;2024-01-07T02:02:34;101993.91;;;1.79;85.17
80186;BME280;69904;52.122;5.422;2024-01-07T02:05:02;101998.03;;;1.83;84.92
80186;BME280;69904;52.122;5.422;2024-01-07T02:07:30;101993.16;;;1.77;84.92
80186;BME280;69904;52.122;5.422;2024-01-07T02:09:57;102002.75;;;1.80;84.74
80186;BME280;69904;52.122;5.422;2024-01-07T02:12:24;102010.94;;;1.77;84.73
80186;BME280;69904;52.122;5.422;2024-01-07T02:14:50;102009.03;;;1.79;84.77
80186;BME280;69904;52.122;5.422;2024-01-07T02:17:18;102006.47;;;1.77;84.66
80186;BME280;69904;52.122;5.422;2024-01-07T02:19:45;102008.06;;;1.80;84.79
80186;BME280;69904;52.122;5.422;2024-01-07T02:22:12;102005.75;;;1.75;84.63
80186;BME280;69904;52.122;5.422;2024-01-07T02:24:38;102013.72;;;1.75;84.56
80186;BME280;69904;52.122;5.422;2024-01-07T02:27:04;102012.78;;;1.76;84.78
80186;BME280;69904;52.122;5.422;2024-01-07T02:29:31;102019.06;;;1.75;84.59
80186;BME280;69904;52.122;5.422;2024-01-07T02:31:57;102024.13;;;1.78;84.74
80186;BME280;69904;52.122;5.422;2024-01-07T02:34:24;102017.13;;;1.77;84.57
80186;BME280;69904;52.122;5.422;2024-01-07T02:36:50;102034.38;;;1.72;84.64
80186;BME280;69904;52.122;5.422;2024-01-07T02:39:17;102021.06;;;1.72;84.59
80186;BME280;69904;52.122;5.422;2024-01-07T02:41:44;102020.00;;;1.74;84.54
80186;BME280;69904;52.122;5.422;2024-01-07T02:44:11;102025.22;;;1.76;84.53
80186;BME280;69904;52.122;5.422;2024-01-07T02:46:39;102027.75;;;1.77;84.47
80186;BME280;69904;52.122;5.422;2024-01-07T02:49:05;102030.66;;;1.74;84.31
80186;BME280;69904;52.122;5.422;2024-01-07T02:51:32;102032.38;;;1.75;84.45
80186;BME280;69904;52.122;5.422;2024-01-07T02:53:58;102030.66;;;1.74;84.45
80186;BME280;69904;52.122;5.422;2024-01-07T02:56:25;102032.69;;;1.71;84.62
80186;BME280;69904;52.122;5.422;2024-01-07T02:58:51;102032.69;;;1.71;84.62
80186;BME280;69904;52.122;5.422;2024-01-07T03:01:21;102033.31;;;1.74;84.49
80186;BME280;69904;52.122;5.422;2024-01-07T03:03:48;102038.41;;;1.77;84.46
80186;BME280;69904;52.122;5.422;2024-01-07T03:06:14;102034.06;;;1.76;84.61
80186;BME280;69904;52.122;5.422;2024-01-07T03:08:42;102047.47;;;1.75;84.37
80186;BME280;69904;52.122;5.422;2024-01-07T03:11:08;102033.31;;;1.74;84.48
80186;BME280;69904;52.122;5.422;2024-01-07T03:13:35;102040.34;;;1.75;84.24
80186;BME280;69904;52.122;5.422;2024-01-07T03:16:01;102046.53;;;1.76;84.33
80186;BME280;69904;52.122;5.422;2024-01-07T03:18:28;102042.59;;;1.68;84.42
80186;BME280;69904;52.122;5.422;2024-01-07T03:20:57;102051.63;;;1.66;84.25
80186;BME280;69904;52.122;5.422;2024-01-07T03:23:24;102052.38;;;1.68;84.24
80186;BME280;69904;52.122;5.422;2024-01-07T03:25:50;102061.13;;;1.70;84.29
80186;BME280;69904;52.122;5.422;2024-01-07T03:28:17;102058.56;;;1.68;84.29
80186;BME280;69904;52.122;5.422;2024-01-07T03:30:43;102065.69;;;1.68;84.52
80186;BME280;69904;52.122;5.422;2024-01-07T03:33:10;102058.78;;;1.65;84.46
80186;BME280;69904;52.122;5.422;2024-01-07T03:35:37;102066.66;;;1.67;84.14
80186;BME280;69904;52.122;5.422;2024-01-07T03:38:03;102061.66;;;1.62;84.39
80186;BME280;69904;52.122;5.422;2024-01-07T03:40:30;102068.06;;;1.60;84.51
80186;BME280;69904;52.122;5.422;2024-01-07T03:42:56;102059.00;;;1.62;84.42
80186;BME280;69904;52.122;5.422;2024-01-07T03:45:23;102070.41;;;1.64;84.52
80186;BME280;69904;52.122;5.422;2024-01-07T03:47:49;102076.66;;;1.63;84.58
80186;BME280;69904;52.122;5.422;2024-01-07T03:50:16;102069.63;;;1.62;84.68
80186;BME280;69904;52.122;5.422;2024-01-07T03:52:42;102076.88;;;1.60;84.79
80186;BME280;69904;52.122;5.422;2024-01-07T03:55:09;102082.00;;;1.63;84.60
80186;BME280;69904;52.122;5.422;2024-01-07T03:57:36;102083.19;;;1.59;84.71
80186;BME280;69904;52.122;5.422;2024-01-07T04:00:03;102084.56;;;1.65;84.91
80186;BME280;69904;52.122;5.422;2024-01-07T04:02:30;102090.06;;;1.62;84.62
80186;BME280;69904;52.122;5.422;2024-01-07T04:04:56;102094.53;;;1.61;84.71
80186;BME280;69904;52.122;5.422;2024-01-07T04:07:23;102099.53;;;1.66;84.91
80186;BME280;69904;52.122;5.422;2024-01-07T04:09:49;102103.38;;;1.62;84.60
80186;BME280;69904;52.122;5.422;2024-01-07T04:12:16;102101.91;;;1.58;84.68
80186;BME280;69904;52.122;5.422;2024-01-07T04:14:43;102099.25;;;1.58;84.58
80186;BME280;69904;52.122;5.422;2024-01-07T04:17:09;102104.88;;;1.53;84.72
80186;BME280;69904;52.122;5.422;2024-01-07T04:19:37;102112.03;;;1.53;84.61
80186;BME280;69904;52.122;5.422;2024-01-07T04:22:04;102113.72;;;1.54;84.80
80186;BME280;69904;52.122;5.422;2024-01-07T04:24:31;102113.50;;;1.57;84.64
80186;BME280;69904;52.122;5.422;2024-01-07T04:26:58;102114.34;;;1.57;84.66
80186;BME280;69904;52.122;5.422;2024-01-07T04:29:24;102117.88;;;1.58;84.34
80186;BME280;69904;52.122;5.422;2024-01-07T04:31:50;102116.16;;;1.57;84.33
80186;BME280;69904;52.122;5.422;2024-01-07T04:34:17;102121.28;;;1.60;84.05
80186;BME280;69904;52.122;5.422;2024-01-07T04:36:44;102118.47;;;1.61;84.35
80186;BME280;69904;52.122;5.422;2024-01-07T04:39:10;102132.22;;;1.55;84.16
80186;BME280;69904;52.122;5.422;2024-01-07T04:41:37;102131.25;;;1.56;84.03
80186;BME280;69904;52.122;5.422;2024-01-07T04:44:04;102135.53;;;1.59;84.04
80186;BME280;69904;52.122;5.422;2024-01-07T04:46:33;102140.00;;;1.58;83.84
80186;BME280;69904;52.122;5.422;2024-01-07T04:49:00;102138.28;;;1.57;83.83
80186;BME280;69904;52.122;5.422;2024-01-07T04:51:27;102146.28;;;1.57;83.65
80186;BME280;69904;52.122;5.422;2024-01-07T04:53:53;102142.84;;;1.55;83.78
80186;BME280;69904;52.122;5.422;2024-01-07T04:56:20;102144.47;;;1.58;83.63
80186;BME280;69904;52.122;5.422;2024-01-07T04:58:46;102152.44;;;1.58;83.60
80186;BME280;69904;52.122;5.422;2024-01-07T05:01:13;102159.56;;;1.57;83.34
80186;BME280;69904;52.122;5.422;2024-01-07T05:03:39;102168.31;;;1.59;83.17
80186;BME280;69904;52.122;5.422;2024-01-07T05:06:09;102163.84;;;1.60;82.85
80186;BME280;69904;52.122;5.422;2024-01-07T05:08:36;102159.25;;;1.62;83.05
80186;BME280;69904;52.122;5.422;2024-01-07T05:11:04;102166.50;;;1.60;82.81
80186;BME280;69904;52.122;5.422;2024-01-07T05:13:30;102170.31;;;1.56;83.04
80186;BME280;69904;52.122;5.422;2024-01-07T05:15:57;102172.97;;;1.56;82.41
80186;BME280;69904;52.122;5.422;2024-01-07T05:18:24;102178.53;;;1.53;82.24
80186;BME280;69904;52.122;5.422;2024-01-07T05:20:51;102188.31;;;1.52;82.12
80186;BME280;69904;52.122;5.422;2024-01-07T05:23:18;102188.41;;;1.51;82.01
80186;BME280;69904;52.122;5.422;2024-01-07T05:25:45;102194.50;;;1.53;82.08
80186;BME280;69904;52.122;5.422;2024-01-07T05:28:12;102197.16;;;1.53;81.95
80186;BME280;69904;52.122;5.422;2024-01-07T05:30:41;102203.22;;;1.55;82.01
80186;BME280;69904;52.122;5.422;2024-01-07T05:33:07;102198.72;;;1.55;82.33
80186;BME280;69904;52.122;5.422;2024-01-07T05:35:34;102203.31;;;1.53;82.10
80186;BME280;69904;52.122;5.422;2024-01-07T05:38:01;102200.44;;;1.56;82.14
80186;BME280;69904;52.122;5.422;2024-01-07T05:40:27;102200.25;;;1.59;81.97
80186;BME280;69904;52.122;5.422;2024-01-07T05:42:54;102202.38;;;1.54;81.94
80186;BME280;69904;52.122;5.422;2024-01-07T05:45:20;102211.09;;;1.56;81.94
80186;BME280;69904;52.122;5.422;2024-01-07T05:47:47;102214.69;;;1.55;81.56
80186;BME280;69904;52.122;5.422;2024-01-07T05:50:13;102217.47;;;1.54;81.47
80186;BME280;69904;52.122;5.422;2024-01-07T05:52:42;102224.69;;;1.52;81.41
80186;BME280;69904;52.122;5.422;2024-01-07T05:55:08;102224.69;;;1.52;81.44
80186;BME280;69904;52.122;5.422;2024-01-07T05:57:35;102230.88;;;1.52;81.18
80186;BME280;69904;52.122;5.422;2024-01-07T06:00:02;102227.47;;;1.50;81.28
80186;BME280;69904;52.122;5.422;2024-01-07T06:02:28;102231.19;;;1.48;81.09
80186;BME280;69904;52.122;5.422;2024-01-07T06:04:55;102241.06;;;1.46;80.81
80186;BME280;69904;52.122;5.422;2024-01-07T06:07:21;102239.38;;;1.45;80.84
80186;BME280;69904;52.122;5.422;2024-01-07T06:09:48;102242.16;;;1.43;80.93
80186;BME280;69904;52.122;5.422;2024-01-07T06:12:14;102237.47;;;1.47;81.03
80186;BME280;69904;52.122;5.422;2024-01-07T06:14:41;102245.69;;;1.44;81.07
80186;BME280;69904;52.122;5.422;2024-01-07T06:17:07;102250.00;;;1.45;81.08
80186;BME280;69904;52.122;5.422;2024-01-07T06:19:34;102256.19;;;1.45;81.29
80186;BME280;69904;52.122;5.422;2024-01-07T06:22:00;102256.09;;;1.47;81.10
80186;BME280;69904;52.122;5.422;2024-01-07T06:24:27;102254.59;;;1.43;81.06
80186;BME280;69904;52.122;5.422;2024-01-07T06:26:53;102265.16;;;1.44;81.12
80186;BME280;69904;52.122;5.422;2024-01-07T06:29:20;102270.25;;;1.47;81.28
80186;BME280;69904;52.122;5.422;2024-01-07T06:31:46;102274.19;;;1.42;81.03
80186;BME280;69904;52.122;5.422;2024-01-07T06:34:13;102274.50;;;1.37;80.78
80186;BME280;69904;52.122;5.422;2024-01-07T06:36:40;102285.22;;;1.36;80.87
80186;BME280;69904;52.122;5.422;2024-01-07T06:39:10;102279.81;;;1.37;80.71
80186;BME280;69904;52.122;5.422;2024-01-07T06:41:37;102285.13;;;1.37;80.67
80186;BME280;69904;52.122;5.422;2024-01-07T06:44:03;102288.72;;;1.36;80.59
80186;BME280;69904;52.122;5.422;2024-01-07T06:46:30;102292.88;;;1.40;80.66
80186;BME280;69904;52.122;5.422;2024-01-07T06:48:56;102291.94;;;1.41;80.43
80186;BME280;69904;52.122;5.422;2024-01-07T06:51:23;102297.56;;;1.37;80.67
80186;BME280;69904;52.122;5.422;2024-01-07T06:53:49;102297.34;;;1.40;80.68
80186;BME280;69904;52.122;5.422;2024-01-07T06:56:16;102304.28;;;1.42;80.55
80186;BME280;69904;52.122;5.422;2024-01-07T06:58:43;102307.13;;;1.39;80.67
80186;BME280;69904;52.122;5.422;2024-01-07T07:01:10;102317.78;;;1.39;80.80
80186;BME280;69904;52.122;5.422;2024-01-07T07:03:39;102318.09;;;1.35;80.51
80186;BME280;69904;52.122;5.422;2024-01-07T07:06:06;102331.38;;;1.35;80.51
80186;BME280;69904;52.122;5.422;2024-01-07T07:08:33;102325.66;;;1.28;80.56
80186;BME280;69904;52.122;5.422;2024-01-07T07:11:00;102333.50;;;1.30;80.67
80186;BME280;69904;52.122;5.422;2024-01-07T07:13:27;102332.16;;;1.37;80.31
80186;BME280;69904;52.122;5.422;2024-01-07T07:15:53;102332.06;;;1.38;80.81
80186;BME280;69904;52.122;5.422;2024-01-07T07:18:20;102343.72;;;1.36;80.40
80186;BME280;69904;52.122;5.422;2024-01-07T07:20:47;102337.88;;;1.31;80.49
80186;BME280;69904;52.122;5.422;2024-01-07T07:23:13;102342.34;;;1.30;80.77
80186;BME280;69904;52.122;5.422;2024-01-07T07:25:40;102346.59;;;1.33;80.69
80186;BME280;69904;52.122;5.422;2024-01-07T07:28:06;102345.00;;;1.30;80.79
80186;BME280;69904;52.122;5.422;2024-01-07T07:30:33;102352.97;;;1.30;80.72
80186;BME280;69904;52.122;5.422;2024-01-07T07:33:00;102355.63;;;1.30;80.71
80186;BME280;69904;52.122;5.422;2024-01-07T07:35:26;102357.44;;;1.30;80.74
80186;BME280;69904;52.122;5.422;2024-01-07T07:37:52;102363.59;;;1.30;80.53
80186;BME280;69904;52.122;5.422;2024-01-07T07:40:19;102375.09;;;1.31;80.59
80186;BME280;69904;52.122;5.422;2024-01-07T07:42:46;102364.94;;;1.23;80.82
80186;BME280;69904;52.122;5.422;2024-01-07T07:45:12;102372.75;;;1.26;80.57
80186;BME280;69904;52.122;5.422;2024-01-07T07:47:39;102377.00;;;1.28;80.70
80186;BME280;69904;52.122;5.422;2024-01-07T07:50:11;102388.78;;;1.24;80.40
80186;BME280;69904;52.122;5.422;2024-01-07T07:52:38;102396.97;;;1.21;80.59
80186;BME280;69904;52.122;5.422;2024-01-07T07:55:04;102394.31;;;1.21;80.58
80186;BME280;69904;52.122;5.422;2024-01-07T07:57:33;102401.53;;;1.19;80.65
80186;BME280;69904;52.122;5.422;2024-01-07T08:00:00;102407.41;;;1.24;80.61
80186;BME280;69904;52.122;5.422;2024-01-07T08:02:30;102413.78;;;1.22;80.70
80186;BME280;69904;52.122;5.422;2024-01-07T08:04:56;102413.59;;;1.25;80.18
80186;BME280;69904;52.122;5.422;2024-01-07T08:07:23;102419.00;;;1.23;79.74
80186;BME280;69904;52.122;5.422;2024-01-07T08:09:49;102422.63;;;1.22;79.50
80186;BME280;69904;52.122;5.422;2024-01-07T08:12:16;102430.03;;;1.17;79.50
80186;BME280;69904;52.122;5.422;2024-01-07T08:14:42;102431.16;;;1.13;79.20
80186;BME280;69904;52.122;5.422;2024-01-07T08:17:09;102434.22;;;1.21;79.50
80186;BME280;69904;52.122;5.422;2024-01-07T08:19:36;102441.88;;;1.26;79.57
80186;BME280;69904;52.122;5.422;2024-01-07T08:22:02;102439.00;;;1.29;79.33
80186;BME280;69904;52.122;5.422;2024-01-07T08:24:29;102443.59;;;1.27;79.46
80186;BME280;69904;52.122;5.422;2024-01-07T08:26:55;102440.25;;;1.23;79.28
80186;BME280;69904;52.122;5.422;2024-01-07T08:29:22;102439.22;;;1.26;79.27
80186;BME280;69904;52.122;5.422;2024-01-07T08:31:49;102443.69;;;1.25;79.18
80186;BME280;69904;52.122;5.422;2024-01-07T08:34:15;102444.53;;;1.26;79.39
80186;BME280;69904;52.122;5.422;2024-01-07T08:36:42;102449.09;;;1.24;79.25
80186;BME280;69904;52.122;5.422;2024-01-07T08:39:09;102451.97;;;1.21;79.24
80186;BME280;69904;52.122;5.422;2024-01-07T08:41:35;102458.44;;;1.17;79.23
80186;BME280;69904;52.122;5.422;2024-01-07T08:44:02;102462.50;;;1.22;79.24
80186;BME280;69904;52.122;5.422;2024-01-07T08:46:28;102467.53;;;1.27;79.17
80186;BME280;69904;52.122;5.422;2024-01-07T08:48:54;102466.97;;;1.22;79.03
80186;BME280;69904;52.122;5.422;2024-01-07T08:51:21;102479.59;;;1.18;78.99
80186;BME280;69904;52.122;5.422;2024-01-07T08:53:48;102478.56;;;1.21;79.09
80186;BME280;69904;52.122;5.422;2024-01-07T08:56:15;102479.50;;;1.20;78.97
80186;BME280;69904;52.122;5.422;2024-01-07T08:58:41;102484.91;;;1.18;78.79
80186;BME280;69904;52.122;5.422;2024-01-07T09:01:08;102492.16;;;1.16;78.61
80186;BME280;69904;52.122;5.422;2024-01-07T09:03:35;102492.03;;;1.18;78.69
80186;BME280;69904;52.122;5.422;2024-01-07T09:06:02;102501.06;;;1.15;78.23
80186;BME280;69904;52.122;5.422;2024-01-07T09:08:28;102495.75;;;1.15;77.90
80186;BME280;69904;52.122;5.422;2024-01-07T09:10:55;102499.75;;;1.22;77.84
80186;BME280;69904;52.122;5.422;2024-01-07T09:13:22;102512.06;;;1.23;77.62
80186;BME280;69904;52.122;5.422;2024-01-07T09:15:48;102516.44;;;1.24;77.58
80186;BME280;69904;52.122;5.422;2024-01-07T09:18:15;102515.69;;;1.22;77.51
80186;BME280;69904;52.122;5.422;2024-01-07T09:20:42;102528.03;;;1.23;77.39
80186;BME280;69904;52.122;5.422;2024-01-07T09:23:08;102518.34;;;1.22;77.28
80186;BME280;69904;52.122;5.422;2024-01-07T09:25:35;102524.50;;;1.23;77.20
80186;BME280;69904;52.122;5.422;2024-01-07T09:28:01;102535.06;;;1.24;77.39
80186;BME280;69904;52.122;5.422;2024-01-07T09:30:28;102536.78;;;1.25;77.34
80186;BME280;69904;52.122;5.422;2024-01-07T09:32:54;102542.09;;;1.25;77.27
80186;BME280;69904;52.122;5.422;2024-01-07T09:35:21;102546.25;;;1.30;77.30
80186;BME280;69904;52.122;5.422;2024-01-07T09:37:48;102548.53;;;1.36;77.39
80186;BME280;69904;52.122;5.422;2024-01-07T09:40:18;102554.91;;;1.33;77.47
80186;BME280;69904;52.122;5.422;2024-01-07T09:42:48;102555.88;;;1.32;77.53
80186;BME280;69904;52.122;5.422;2024-01-07T09:45:15;102565.34;;;1.36;77.49
80186;BME280;69904;52.122;5.422;2024-01-07T09:47:44;102562.69;;;1.36;77.31
80186;BME280;69904;52.122;5.422;2024-01-07T09:50:12;102569.91;;;1.34;77.23
80186;BME280;69904;52.122;5.422;2024-01-07T09:52:43;102576.19;;;1.33;77.08
80186;BME280;69904;52.122;5.422;2024-01-07T09:55:12;102577.03;;;1.34;76.91
80186;BME280;69904;52.122;5.422;2024-01-07T09:57:45;102575.72;;;1.26;76.42
80186;BME280;69904;52.122;5.422;2024-01-07T10:00:12;102578.16;;;1.30;76.36
80186;BME280;69904;52.122;5.422;2024-01-07T10:02:39;102584.34;;;1.30;76.08
80186;BME280;69904;52.122;5.422;2024-01-07T10:05:07;102586.72;;;1.35;75.94
80186;BME280;69904;52.122;5.422;2024-01-07T10:07:34;102585.78;;;1.36;75.59
80186;BME280;69904;52.122;5.422;2024-01-07T10:12:39;102577.22;;;1.31;74.76
80186;BME280;69904;52.122;5.422;2024-01-07T10:15:06;102583.03;;;1.37;75.08
80186;BME280;69904;52.122;5.422;2024-01-07T10:17:33;102586.72;;;1.35;74.61
80186;BME280;69904;52.122;5.422;2024-01-07T10:19:59;102588.06;;;1.42;74.22
80186;BME280;69904;52.122;5.422;2024-01-07T10:22:26;102593.28;;;1.43;74.15
80186;BME280;69904;52.122;5.422;2024-01-07T10:24:52;102587.19;;;1.41;73.91
80186;BME280;69904;52.122;5.422;2024-01-07T10:27:22;102597.84;;;1.41;73.64
80186;BME280;69904;52.122;5.422;2024-01-07T10:29:50;102608.66;;;1.52;73.56
80186;BME280;69904;52.122;5.422;2024-01-07T10:32:17;102610.75;;;1.61;73.84
80186;BME280;69904;52.122;5.422;2024-01-07T10:34:46;102621.28;;;1.77;73.41
80186;BME280;69904;52.122;5.422;2024-01-07T10:37:16;102617.50;;;1.81;73.06
80186;BME280;69904;52.122;5.422;2024-01-07T10:39:42;102627.28;;;1.81;73.04
80186;BME280;69904;52.122;5.422;2024-01-07T10:42:10;102630.88;;;1.80;72.52
80186;BME280;69904;52.122;5.422;2024-01-07T10:44:38;102627.03;;;1.98;72.23
80186;BME280;69904;52.122;5.422;2024-01-07T10:47:07;102635.09;;;2.10;71.80
80186;BME280;69904;52.122;5.422;2024-01-07T10:49:35;102627.63;;;2.30;71.83
80186;BME280;69904;52.122;5.422;2024-01-07T10:52:04;102634.88;;;2.54;71.53
80186;BME280;69904;52.122;5.422;2024-01-07T10:54:32;102631.97;;;2.58;70.78
80186;BME280;69904;52.122;5.422;2024-01-07T11:00:07;102632.06;;;2.43;70.14
80186;BME280;69904;52.122;5.422;2024-01-07T11:02:53;102629.56;;;2.67;69.93
80186;BME280;69904;52.122;5.422;2024-01-07T11:08:05;102625.72;;;3.36;69.18
80186;BME280;69904;52.122;5.422;2024-01-07T11:10:43;102633.88;;;3.71;68.63
80186;BME280;69904;52.122;5.422;2024-01-07T11:13:38;102628.34;;;4.10;67.66
80186;BME280;69904;52.122;5.422;2024-01-07T11:16:06;102628.72;;;4.53;66.79
80186;BME280;69904;52.122;5.422;2024-01-07T11:18:45;102624.72;;;4.59;65.56
80186;BME280;69904;52.122;5.422;2024-01-07T11:21:20;102626.44;;;4.95;64.22
80186;BME280;69904;52.122;5.422;2024-01-07T11:23:47;102631.53;;;5.66;63.27
80186;BME280;69904;52.122;5.422;2024-01-07T11:26:14;102624.00;;;6.37;60.67
80186;BME280;69904;52.122;5.422;2024-01-07T11:28:52;102627.09;;;6.53;60.14
80186;BME280;69904;52.122;5.422;2024-01-07T11:31:21;102630.75;;;6.52;59.49
80186;BME280;69904;52.122;5.422;2024-01-07T11:33:49;102631.25;;;7.60;58.38
80186;BME280;69904;52.122;5.422;2024-01-07T11:36:17;102622.34;;;8.69;56.61
80186;BME280;69904;52.122;5.422;2024-01-07T11:38:48;102621.19;;;8.52;54.44
80186;BME280;69904;52.122;5.422;2024-01-07T11:41:20;102617.22;;;8.37;55.20
80186;BME280;69904;52.122;5.422;2024-01-07T11:43:54;102629.94;;;7.04;56.61
80186;BME280;69904;52.122;5.422;2024-01-07T11:46:22;102647.81;;;6.19;57.01
80186;BME280;69904;52.122;5.422;2024-01-07T11:48:52;102633.56;;;5.63;57.15
80186;BME280;69904;52.122;5.422;2024-01-07T11:51:19;102628.84;;;5.55;57.86
80186;BME280;69904;52.122;5.422;2024-01-07T11:53:46;102636.22;;;5.29;57.70
80186;BME280;69904;52.122;5.422;2024-01-07T11:56:14;102630.19;;;5.61;58.18
80186;BME280;69904;52.122;5.422;2024-01-07T11:58:41;102629.16;;;6.28;56.74
80186;BME280;69904;52.122;5.422;2024-01-07T12:01:08;102621.94;;;6.72;56.06
80186;BME280;69904;52.122;5.422;2024-01-07T12:03:34;102624.19;;;6.56;56.20
80186;BME280;69904;52.122;5.422;2024-01-07T12:06:02;102624.44;;;7.56;55.09
80186;BME280;69904;52.122;5.422;2024-01-07T12:08:29;102623.63;;;8.65;52.23
80186;BME280;69904;52.122;5.422;2024-01-07T12:10:57;102617.22;;;8.95;51.09
80186;BME280;69904;52.122;5.422;2024-01-07T12:13:24;102622.72;;;8.35;50.93
80186;BME280;69904;52.122;5.422;2024-01-07T12:15:50;102622.91;;;8.03;51.80
80186;BME280;69904;52.122;5.422;2024-01-07T12:18:17;102638.88;;;7.65;52.13
80186;BME280;69904;52.122;5.422;2024-01-07T12:20:54;102629.81;;;8.46;51.36
80186;BME280;69904;52.122;5.422;2024-01-07T12:23:21;102631.91;;;9.10;50.01
80186;BME280;69904;52.122;5.422;2024-01-07T12:25:48;102632.78;;;9.10;49.11
80186;BME280;69904;52.122;5.422;2024-01-07T12:28:17;102637.75;;;8.76;49.90
80186;BME280;69904;52.122;5.422;2024-01-07T12:30:45;102634.22;;;8.37;49.62
80186;BME280;69904;52.122;5.422;2024-01-07T12:33:15;102640.41;;;7.88;49.46
80186;BME280;69904;52.122;5.422;2024-01-07T12:35:42;102648.31;;;6.88;50.71
80186;BME280;69904;52.122;5.422;2024-01-07T12:38:08;102653.19;;;6.62;51.62
80186;BME280;69904;52.122;5.422;2024-01-07T12:40:35;102646.41;;;8.80;49.38
80186;BME280;69904;52.122;5.422;2024-01-07T12:43:03;102644.47;;;9.85;46.79
80186;BME280;69904;52.122;5.422;2024-01-07T12:45:29;102652.69;;;9.46;45.84
80186;BME280;69904;52.122;5.422;2024-01-07T12:47:56;102658.72;;;8.92;45.99
80186;BME280;69904;52.122;5.422;2024-01-07T12:50:25;102662.91;;;7.57;48.29
80186;BME280;69904;52.122;5.422;2024-01-07T12:52:54;102672.50;;;7.29;49.21
80186;BME280;69904;52.122;5.422;2024-01-07T12:55:22;102670.91;;;7.06;49.36
80186;BME280;69904;52.122;5.422;2024-01-07T12:57:48;102665.50;;;6.85;50.06
80186;BME280;69904;52.122;5.422;2024-01-07T13:00:15;102668.03;;;6.66;50.18
80186;BME280;69904;52.122;5.422;2024-01-07T13:02:42;102680.41;;;7.51;49.44
80186;BME280;69904;52.122;5.422;2024-01-07T13:05:09;102678.72;;;7.09;49.63
80186;BME280;69904;52.122;5.422;2024-01-07T13:07:36;102685.25;;;6.52;50.26